QFA80 RJAA-YMML
Flight info
| Callsign | QFA80 |
|---|---|
| Flight time | N/A |
| Altitude | 41000 |
| Route | SAMUS T840 CADDY B586 UKATA 2604N14055E 2100N14108E 2038N14109E 1547N14123E 0951N14157E 0816N14202E 0339N14207E DCT KALIN R204 LIDIT DCT 1106S14231E DCT ANDEE DCT 1812S14317E 2226S14330E 2737S14359E 2900S14404E 2936S14406E DCT BERVU DCT DORSU H119 ARBEY |
| Aircraft | A332/H-SDE3GHIJ2J3J5M1RVWXY/LB2D1 |
Departure
| Time | 2026-05-06 15:16 |
|---|---|
| Airport | Narita International Airport (RJAA) |
Arrival
| Time | N/A |
|---|---|
| Airport | Melbourne Airport (YMML) |
| Time | Latitude | Longitude | Altitude | Speed | Heading |
|---|---|---|---|---|---|
| 2026-05-06 15:03 | 35.77218 | 140.37506 | 149 ft | 0 kts | 58° |
| 2026-05-06 15:11 | 35.77212 | 140.37493 | 149 ft | 3 kts | 58° |
| 2026-05-06 15:11 | 35.77202 | 140.37474 | 149 ft | 3 kts | 58° |
| 2026-05-06 15:11 | 35.77192 | 140.37454 | 149 ft | 3 kts | 75° |
| 2026-05-06 15:12 | 35.77191 | 140.37431 | 149 ft | 3 kts | 126° |
| 2026-05-06 15:12 | 35.77197 | 140.37421 | 149 ft | 0 kts | 150° |
| 2026-05-06 15:12 | 35.77195 | 140.37422 | 148 ft | 0 kts | 154° |
| 2026-05-06 15:13 | 35.77177 | 140.37419 | 148 ft | 0 kts | 200° |
| 2026-05-06 15:14 | 35.77163 | 140.37419 | 148 ft | 6 kts | 181° |
| 2026-05-06 15:14 | 35.77064 | 140.37421 | 148 ft | 24 kts | 176° |
| 2026-05-06 15:14 | 35.76884 | 140.37457 | 146 ft | 26 kts | 176° |
| 2026-05-06 15:14 | 35.76702 | 140.37459 | 144 ft | 28 kts | 180° |
| 2026-05-06 15:15 | 35.76508 | 140.37508 | 142 ft | 28 kts | 150° |
| 2026-05-06 15:15 | 35.76266 | 140.37683 | 141 ft | 70 kts | 149° |
| 2026-05-06 15:15 | 35.75648 | 140.38129 | 147 ft | 135 kts | 149° |
| 2026-05-06 15:15 | 35.74710 | 140.38803 | 370 ft | 174 kts | 149° |
| 2026-05-06 15:16 | 35.73606 | 140.39616 | 951 ft | 200 kts | 151° |
| 2026-05-06 15:16 | 35.72226 | 140.40203 | 1673 ft | 222 kts | 175° |
| 2026-05-06 15:16 | 35.70583 | 140.40269 | 2350 ft | 251 kts | 184° |
| 2026-05-06 15:16 | 35.68794 | 140.40134 | 3490 ft | 258 kts | 187° |
| 2026-05-06 15:17 | 35.67616 | 140.40021 | 4474 ft | 254 kts | 187° |
| 2026-05-06 15:17 | 35.65266 | 140.39785 | 6228 ft | 254 kts | 188° |
| 2026-05-06 15:17 | 35.63501 | 140.39605 | 7332 ft | 256 kts | 189° |
| 2026-05-06 15:17 | 35.61708 | 140.39421 | 8363 ft | 261 kts | 189° |
| 2026-05-06 15:18 | 35.59904 | 140.39236 | 9331 ft | 267 kts | 189° |
| 2026-05-06 15:18 | 35.58036 | 140.39046 | 10297 ft | 272 kts | 189° |
| 2026-05-06 15:18 | 35.56087 | 140.38844 | 10801 ft | 294 kts | 189° |
| 2026-05-06 15:18 | 35.54668 | 140.38695 | 11028 ft | 311 kts | 189° |
| 2026-05-06 15:19 | 35.51660 | 140.38385 | 11442 ft | 344 kts | 188° |
| 2026-05-06 15:19 | 35.50051 | 140.38222 | 11722 ft | 356 kts | 188° |
| 2026-05-06 15:19 | 35.46689 | 140.37888 | 12676 ft | 367 kts | 188° |
| 2026-05-06 15:19 | 35.44995 | 140.37720 | 13201 ft | 371 kts | 188° |
| 2026-05-06 15:20 | 35.42405 | 140.37462 | 13984 ft | 376 kts | 188° |
| 2026-05-06 15:20 | 35.39781 | 140.37200 | 14667 ft | 381 kts | 189° |
| 2026-05-06 15:20 | 35.36260 | 140.36847 | 15582 ft | 386 kts | 189° |
| 2026-05-06 15:20 | 35.34442 | 140.36664 | 16040 ft | 389 kts | 189° |
| 2026-05-06 15:21 | 35.30848 | 140.36303 | 16916 ft | 394 kts | 191° |
| 2026-05-06 15:21 | 35.28112 | 140.36029 | 17671 ft | 395 kts | 191° |
| 2026-05-06 15:21 | 35.26299 | 140.35848 | 18159 ft | 396 kts | 191° |
| 2026-05-06 15:21 | 35.22604 | 140.35477 | 18933 ft | 400 kts | 192° |
| 2026-05-06 15:22 | 35.20766 | 140.35293 | 19320 ft | 401 kts | 192° |
| 2026-05-06 15:22 | 35.17983 | 140.35015 | 19909 ft | 402 kts | 191° |
| 2026-05-06 15:22 | 35.15189 | 140.34736 | 20482 ft | 403 kts | 191° |
| 2026-05-06 15:22 | 35.12388 | 140.34456 | 21038 ft | 405 kts | 191° |
| 2026-05-06 15:23 | 35.09579 | 140.34175 | 21574 ft | 406 kts | 191° |
| 2026-05-06 15:23 | 35.06759 | 140.33893 | 22093 ft | 408 kts | 191° |
| 2026-05-06 15:23 | 35.03959 | 140.33613 | 22565 ft | 410 kts | 191° |
| 2026-05-06 15:23 | 35.01107 | 140.33328 | 23032 ft | 413 kts | 191° |
| 2026-05-06 15:24 | 34.98239 | 140.33042 | 23490 ft | 415 kts | 191° |
| 2026-05-06 15:24 | 34.95352 | 140.32754 | 23896 ft | 417 kts | 191° |
| 2026-05-06 15:24 | 34.92450 | 140.32465 | 24249 ft | 420 kts | 191° |
| 2026-05-06 15:24 | 34.89526 | 140.32174 | 24550 ft | 423 kts | 191° |
| 2026-05-06 15:25 | 34.86572 | 140.31879 | 24769 ft | 429 kts | 191° |
| 2026-05-06 15:25 | 34.83587 | 140.31582 | 25098 ft | 432 kts | 191° |
| 2026-05-06 15:25 | 34.80586 | 140.31285 | 25455 ft | 433 kts | 191° |
| 2026-05-06 15:25 | 34.77616 | 140.30991 | 25792 ft | 435 kts | 191° |
| 2026-05-06 15:26 | 34.74591 | 140.30692 | 26121 ft | 437 kts | 191° |
| 2026-05-06 15:26 | 34.71548 | 140.30391 | 26437 ft | 439 kts | 191° |
| 2026-05-06 15:26 | 34.68495 | 140.30088 | 26711 ft | 442 kts | 191° |
| 2026-05-06 15:26 | 34.65410 | 140.29782 | 26918 ft | 447 kts | 190° |
| 2026-05-06 15:27 | 34.62302 | 140.29475 | 27223 ft | 449 kts | 190° |
| 2026-05-06 15:27 | 34.59180 | 140.29168 | 27526 ft | 451 kts | 191° |
| 2026-05-06 15:27 | 34.56044 | 140.28859 | 27822 ft | 453 kts | 191° |
| 2026-05-06 15:27 | 34.52898 | 140.28549 | 28107 ft | 455 kts | 191° |
| 2026-05-06 15:28 | 34.49775 | 140.28241 | 28388 ft | 457 kts | 191° |
| 2026-05-06 15:28 | 34.46598 | 140.27928 | 28595 ft | 460 kts | 191° |
| 2026-05-06 15:28 | 34.43393 | 140.27612 | 28824 ft | 463 kts | 191° |
| 2026-05-06 15:28 | 34.40177 | 140.27296 | 29084 ft | 465 kts | 191° |
| 2026-05-06 15:29 | 34.36947 | 140.26979 | 29344 ft | 467 kts | 191° |
| 2026-05-06 15:29 | 34.33702 | 140.26661 | 29584 ft | 469 kts | 191° |
| 2026-05-06 15:29 | 34.30444 | 140.26341 | 29836 ft | 471 kts | 191° |
| 2026-05-06 15:29 | 34.27182 | 140.26023 | 30160 ft | 470 kts | 191° |
| 2026-05-06 15:30 | 34.23964 | 140.25708 | 30432 ft | 470 kts | 191° |
| 2026-05-06 15:30 | 34.20707 | 140.25391 | 30750 ft | 469 kts | 191° |
| 2026-05-06 15:30 | 34.17466 | 140.25075 | 31113 ft | 466 kts | 191° |
| 2026-05-06 15:30 | 34.14237 | 140.24761 | 31474 ft | 464 kts | 191° |
| 2026-05-06 15:31 | 34.11026 | 140.24448 | 31812 ft | 462 kts | 191° |
| 2026-05-06 15:31 | 34.07823 | 140.24135 | 32126 ft | 461 kts | 192° |
| 2026-05-06 15:31 | 34.04638 | 140.23825 | 32444 ft | 459 kts | 192° |
| 2026-05-06 15:32 | 33.98330 | 140.23211 | 33055 ft | 456 kts | 192° |
| 2026-05-06 15:32 | 33.95174 | 140.22904 | 33371 ft | 454 kts | 192° |
| 2026-05-06 15:32 | 33.92028 | 140.22598 | 33682 ft | 453 kts | 192° |
| 2026-05-06 15:32 | 33.88891 | 140.22294 | 33985 ft | 451 kts | 192° |
| 2026-05-06 15:33 | 33.85766 | 140.21991 | 34263 ft | 450 kts | 192° |
| 2026-05-06 15:33 | 33.82640 | 140.21696 | 34423 ft | 451 kts | 192° |
| 2026-05-06 15:33 | 33.76346 | 140.21151 | 34581 ft | 456 kts | 192° |
| 2026-05-06 15:34 | 33.70030 | 140.20630 | 34821 ft | 458 kts | 192° |
| 2026-05-06 15:34 | 33.66847 | 140.20370 | 35007 ft | 458 kts | 192° |
| 2026-05-06 15:34 | 33.63668 | 140.20109 | 35135 ft | 459 kts | 192° |
| 2026-05-06 15:35 | 33.60485 | 140.19844 | 35273 ft | 459 kts | 192° |
| 2026-05-06 15:35 | 33.57295 | 140.19579 | 35473 ft | 458 kts | 192° |
| 2026-05-06 15:35 | 33.54119 | 140.19315 | 35680 ft | 457 kts | 192° |
| 2026-05-06 15:35 | 33.50953 | 140.19051 | 35913 ft | 456 kts | 192° |
| 2026-05-06 15:36 | 33.47793 | 140.18788 | 36116 ft | 455 kts | 193° |
| 2026-05-06 15:36 | 33.44637 | 140.18525 | 36302 ft | 454 kts | 193° |
| 2026-05-06 15:36 | 33.38356 | 140.17999 | 36517 ft | 457 kts | 193° |
| 2026-05-06 15:37 | 33.35190 | 140.17736 | 36727 ft | 456 kts | 193° |
| 2026-05-06 15:37 | 33.32030 | 140.17474 | 36942 ft | 454 kts | 193° |
| 2026-05-06 15:37 | 33.28883 | 140.17215 | 37132 ft | 454 kts | 193° |
| 2026-05-06 15:37 | 33.25737 | 140.16955 | 37317 ft | 453 kts | 193° |
| 2026-05-06 15:38 | 33.22596 | 140.16695 | 37467 ft | 453 kts | 193° |
| 2026-05-06 15:38 | 33.19481 | 140.16434 | 37437 ft | 457 kts | 193° |
| 2026-05-06 15:38 | 33.13124 | 140.15903 | 37531 ft | 458 kts | 193° |
| 2026-05-06 15:39 | 33.09952 | 140.15644 | 37736 ft | 456 kts | 193° |
| 2026-05-06 15:39 | 33.06791 | 140.15386 | 37942 ft | 455 kts | 193° |
| 2026-05-06 15:39 | 33.03638 | 140.15128 | 38136 ft | 454 kts | 193° |
| 2026-05-06 15:39 | 33.00491 | 140.14870 | 38286 ft | 453 kts | 193° |
| 2026-05-06 15:40 | 32.97343 | 140.14610 | 38415 ft | 453 kts | 193° |
| 2026-05-06 15:40 | 32.94200 | 140.14350 | 38575 ft | 453 kts | 193° |
| 2026-05-06 15:40 | 32.91058 | 140.14092 | 38746 ft | 452 kts | 194° |
| 2026-05-06 15:40 | 32.87919 | 140.13834 | 38884 ft | 451 kts | 194° |
| 2026-05-06 15:41 | 32.81694 | 140.13323 | 39071 ft | 452 kts | 193° |
| 2026-05-06 15:41 | 32.75425 | 140.12809 | 39279 ft | 451 kts | 193° |
| 2026-05-06 15:42 | 32.69158 | 140.12295 | 39456 ft | 452 kts | 193° |
| 2026-05-06 15:42 | 32.62881 | 140.11781 | 39631 ft | 452 kts | 193° |
| 2026-05-06 15:43 | 32.56651 | 140.11273 | 39853 ft | 451 kts | 192° |
| 2026-05-06 15:43 | 32.53528 | 140.11020 | 39983 ft | 450 kts | 192° |
| 2026-05-06 15:43 | 32.50400 | 140.10765 | 40048 ft | 450 kts | 192° |
| 2026-05-06 15:44 | 32.44143 | 140.10254 | 40203 ft | 451 kts | 192° |
| 2026-05-06 15:44 | 32.37879 | 140.09744 | 40328 ft | 451 kts | 192° |
| 2026-05-06 15:45 | 32.34755 | 140.09491 | 40486 ft | 449 kts | 192° |
| 2026-05-06 15:45 | 32.31640 | 140.09240 | 40602 ft | 448 kts | 192° |
| 2026-05-06 15:45 | 32.25450 | 140.08737 | 40728 ft | 449 kts | 192° |
| 2026-05-06 15:46 | 32.19212 | 140.08230 | 40853 ft | 450 kts | 192° |
| 2026-05-06 15:46 | 32.12961 | 140.07724 | 40936 ft | 451 kts | 191° |
| 2026-05-06 15:47 | 32.06693 | 140.07218 | 41065 ft | 451 kts | 191° |
| 2026-05-06 15:47 | 32.00462 | 140.06715 | 41124 ft | 452 kts | 191° |
| 2026-05-06 15:48 | 31.94187 | 140.06210 | 41107 ft | 452 kts | 191° |
| 2026-05-06 15:48 | 31.87915 | 140.05706 | 41129 ft | 452 kts | 191° |
| 2026-05-06 15:49 | 31.81622 | 140.05200 | 41128 ft | 453 kts | 191° |
| 2026-05-06 15:49 | 31.75371 | 140.04699 | 41129 ft | 453 kts | 191° |
| 2026-05-06 15:50 | 31.69080 | 140.04196 | 41129 ft | 453 kts | 191° |
| 2026-05-06 15:50 | 31.62789 | 140.03693 | 41127 ft | 453 kts | 191° |
| 2026-05-06 15:51 | 31.56494 | 140.03190 | 41126 ft | 453 kts | 191° |
| 2026-05-06 15:51 | 31.50243 | 140.02691 | 41116 ft | 453 kts | 190° |
| 2026-05-06 15:52 | 31.43949 | 140.02190 | 41126 ft | 454 kts | 190° |
| 2026-05-06 15:52 | 31.37647 | 140.01688 | 41130 ft | 454 kts | 190° |
| 2026-05-06 15:53 | 31.31350 | 140.01188 | 41129 ft | 454 kts | 190° |
| 2026-05-06 15:53 | 31.25093 | 140.00692 | 41128 ft | 453 kts | 190° |
| 2026-05-06 15:54 | 31.18803 | 140.00194 | 41128 ft | 453 kts | 190° |
| 2026-05-06 15:54 | 31.12520 | 139.99697 | 41131 ft | 452 kts | 190° |
| 2026-05-06 15:55 | 31.06238 | 139.99201 | 41115 ft | 453 kts | 190° |
| 2026-05-06 15:55 | 30.99950 | 139.99216 | 41123 ft | 461 kts | 179° |
| 2026-05-06 15:56 | 30.93635 | 140.00934 | 41119 ft | 470 kts | 171° |
| 2026-05-06 15:56 | 30.87369 | 140.03181 | 41134 ft | 472 kts | 169° |
| 2026-05-06 15:57 | 30.81112 | 140.05511 | 41125 ft | 472 kts | 169° |
| 2026-05-06 15:57 | 30.74884 | 140.07800 | 41128 ft | 473 kts | 169° |
| 2026-05-06 15:58 | 30.68606 | 140.10076 | 41127 ft | 472 kts | 169° |
| 2026-05-06 15:58 | 30.62324 | 140.12339 | 41124 ft | 473 kts | 169° |
| 2026-05-06 15:59 | 30.56024 | 140.14604 | 41127 ft | 475 kts | 169° |
| 2026-05-06 15:59 | 30.49750 | 140.16860 | 41127 ft | 475 kts | 169° |
| 2026-05-06 16:00 | 30.43441 | 140.19126 | 41131 ft | 475 kts | 169° |
| 2026-05-06 16:00 | 30.37113 | 140.21395 | 41133 ft | 477 kts | 169° |
| 2026-05-06 16:01 | 30.30771 | 140.23666 | 41130 ft | 477 kts | 169° |
| 2026-05-06 16:01 | 30.24424 | 140.25937 | 41129 ft | 478 kts | 169° |
| 2026-05-06 16:02 | 30.18114 | 140.28191 | 41135 ft | 478 kts | 169° |
| 2026-05-06 16:02 | 30.11762 | 140.30457 | 41136 ft | 478 kts | 169° |
| 2026-05-06 16:03 | 30.05419 | 140.32717 | 41137 ft | 477 kts | 169° |
| 2026-05-06 16:03 | 29.99053 | 140.34660 | 41138 ft | 468 kts | 177° |
| 2026-05-06 16:04 | 29.92671 | 140.35777 | 41138 ft | 466 kts | 179° |
| 2026-05-06 16:04 | 29.86239 | 140.36739 | 41142 ft | 465 kts | 179° |
| 2026-05-06 16:05 | 29.79824 | 140.37675 | 41141 ft | 464 kts | 179° |
| 2026-05-06 16:05 | 29.73417 | 140.38622 | 41141 ft | 464 kts | 179° |
| 2026-05-06 16:06 | 29.67056 | 140.39571 | 41140 ft | 464 kts | 179° |
| 2026-05-06 16:06 | 29.60647 | 140.40530 | 41141 ft | 464 kts | 179° |
| 2026-05-06 16:07 | 29.54241 | 140.41487 | 41138 ft | 464 kts | 179° |
| 2026-05-06 16:07 | 29.47834 | 140.42442 | 41123 ft | 464 kts | 179° |
| 2026-05-06 16:08 | 29.41465 | 140.43390 | 41140 ft | 465 kts | 179° |
| 2026-05-06 16:08 | 29.35040 | 140.44345 | 41140 ft | 466 kts | 179° |
| 2026-05-06 16:09 | 29.28616 | 140.45300 | 41140 ft | 466 kts | 179° |
| 2026-05-06 16:09 | 29.22189 | 140.46254 | 41140 ft | 466 kts | 179° |
| 2026-05-06 16:10 | 29.15756 | 140.47206 | 41140 ft | 467 kts | 179° |
| 2026-05-06 16:10 | 29.09357 | 140.48153 | 41140 ft | 467 kts | 179° |
| 2026-05-06 16:11 | 29.02917 | 140.49105 | 41131 ft | 467 kts | 179° |
| 2026-05-06 16:11 | 28.96472 | 140.50056 | 41138 ft | 468 kts | 179° |
| 2026-05-06 16:12 | 28.90016 | 140.51007 | 41137 ft | 468 kts | 179° |
| 2026-05-06 16:12 | 28.83601 | 140.51952 | 41129 ft | 468 kts | 179° |
| 2026-05-06 16:13 | 28.77142 | 140.52902 | 41144 ft | 468 kts | 178° |
| 2026-05-06 16:13 | 28.70673 | 140.53851 | 41143 ft | 469 kts | 178° |
| 2026-05-06 16:14 | 28.64197 | 140.54801 | 41140 ft | 469 kts | 178° |
| 2026-05-06 16:14 | 28.57768 | 140.55743 | 41137 ft | 469 kts | 178° |
| 2026-05-06 16:15 | 28.51279 | 140.56692 | 41137 ft | 471 kts | 178° |
| 2026-05-06 16:15 | 28.44783 | 140.57642 | 41138 ft | 471 kts | 178° |
| 2026-05-06 16:16 | 28.38287 | 140.58591 | 41136 ft | 471 kts | 178° |
| 2026-05-06 16:16 | 28.31834 | 140.59531 | 41140 ft | 471 kts | 178° |
| 2026-05-06 16:17 | 28.25329 | 140.60478 | 41140 ft | 471 kts | 178° |
| 2026-05-06 16:17 | 28.18826 | 140.61424 | 41140 ft | 471 kts | 178° |
| 2026-05-06 16:18 | 28.12321 | 140.62369 | 41141 ft | 472 kts | 178° |
| 2026-05-06 16:18 | 28.05807 | 140.63313 | 41136 ft | 472 kts | 178° |
| 2026-05-06 16:19 | 27.99335 | 140.64251 | 41138 ft | 472 kts | 178° |
| 2026-05-06 16:19 | 27.92823 | 140.65194 | 41133 ft | 472 kts | 178° |
| 2026-05-06 16:20 | 27.86304 | 140.66136 | 41142 ft | 472 kts | 178° |
| 2026-05-06 16:20 | 27.79784 | 140.67077 | 41138 ft | 472 kts | 178° |
| 2026-05-06 16:21 | 27.73310 | 140.68010 | 41130 ft | 472 kts | 178° |
| 2026-05-06 16:21 | 27.66795 | 140.68949 | 41141 ft | 472 kts | 178° |
| 2026-05-06 16:22 | 27.60287 | 140.69885 | 41138 ft | 471 kts | 178° |
| 2026-05-06 16:22 | 27.53777 | 140.70820 | 41138 ft | 471 kts | 178° |
| 2026-05-06 16:23 | 27.47312 | 140.71747 | 41138 ft | 472 kts | 178° |
| 2026-05-06 16:23 | 27.40807 | 140.72680 | 41138 ft | 471 kts | 178° |
| 2026-05-06 16:24 | 27.34297 | 140.73611 | 41138 ft | 471 kts | 178° |
| 2026-05-06 16:24 | 27.27788 | 140.74542 | 41139 ft | 471 kts | 177° |
| 2026-05-06 16:25 | 27.21310 | 140.75467 | 41135 ft | 473 kts | 177° |
| 2026-05-06 16:25 | 27.14780 | 140.76398 | 41138 ft | 473 kts | 177° |
| 2026-05-06 16:26 | 27.08248 | 140.77329 | 41129 ft | 473 kts | 177° |
| 2026-05-06 16:26 | 27.01721 | 140.78258 | 41136 ft | 473 kts | 177° |
| 2026-05-06 16:27 | 26.95225 | 140.79181 | 41129 ft | 474 kts | 177° |
| 2026-05-06 16:27 | 26.88685 | 140.80110 | 41131 ft | 474 kts | 177° |
| 2026-05-06 16:28 | 26.82146 | 140.81037 | 41129 ft | 474 kts | 177° |
| 2026-05-06 16:28 | 26.75597 | 140.81965 | 41132 ft | 475 kts | 177° |
| 2026-05-06 16:29 | 26.69091 | 140.82885 | 41132 ft | 475 kts | 177° |
| 2026-05-06 16:29 | 26.62537 | 140.83812 | 41113 ft | 475 kts | 177° |
| 2026-05-06 16:30 | 26.57084 | 140.84581 | 41130 ft | 476 kts | 177° |
| 2026-05-06 16:30 | 26.49393 | 140.85665 | 41130 ft | 477 kts | 177° |
| 2026-05-06 16:31 | 26.42803 | 140.86594 | 41127 ft | 477 kts | 177° |
| 2026-05-06 16:31 | 26.36263 | 140.87514 | 41126 ft | 477 kts | 177° |
| 2026-05-06 16:32 | 26.29680 | 140.88439 | 41128 ft | 477 kts | 177° |
| 2026-05-06 16:32 | 26.23094 | 140.89364 | 41130 ft | 477 kts | 177° |
| 2026-05-06 16:33 | 26.16511 | 140.90286 | 41123 ft | 477 kts | 177° |
| 2026-05-06 16:34 | 26.06675 | 140.91648 | 41127 ft | 476 kts | 178° |
| 2026-05-06 16:34 | 26.00080 | 140.92110 | 41127 ft | 474 kts | 182° |
| 2026-05-06 16:35 | 25.93488 | 140.92330 | 41115 ft | 474 kts | 182° |
| 2026-05-06 16:35 | 25.86895 | 140.92559 | 41123 ft | 475 kts | 181° |
| 2026-05-06 16:36 | 25.80332 | 140.92829 | 41119 ft | 475 kts | 181° |
| 2026-05-06 16:36 | 25.73726 | 140.93122 | 41121 ft | 475 kts | 181° |
| 2026-05-06 16:37 | 25.67111 | 140.93418 | 41121 ft | 475 kts | 181° |
| 2026-05-06 16:37 | 25.60501 | 140.93711 | 41114 ft | 476 kts | 181° |
| 2026-05-06 16:38 | 25.53882 | 140.94004 | 41118 ft | 476 kts | 181° |
| 2026-05-06 16:38 | 25.47310 | 140.94294 | 41117 ft | 476 kts | 181° |
| 2026-05-06 16:39 | 25.40690 | 140.94585 | 41113 ft | 476 kts | 181° |
| 2026-05-06 16:39 | 25.34072 | 140.94876 | 41111 ft | 476 kts | 181° |
| 2026-05-06 16:40 | 25.27447 | 140.95167 | 41118 ft | 476 kts | 181° |
| 2026-05-06 16:40 | 25.20871 | 140.95456 | 41111 ft | 476 kts | 181° |
| 2026-05-06 16:41 | 25.14252 | 140.95746 | 41114 ft | 476 kts | 181° |
| 2026-05-06 16:41 | 25.07629 | 140.96036 | 41114 ft | 476 kts | 181° |
| 2026-05-06 16:42 | 25.01011 | 140.96326 | 41116 ft | 476 kts | 181° |
| 2026-05-06 16:42 | 24.94388 | 140.96615 | 41116 ft | 476 kts | 181° |
| 2026-05-06 16:43 | 24.87817 | 140.96902 | 41118 ft | 476 kts | 181° |
| 2026-05-06 16:43 | 24.81196 | 140.97191 | 41111 ft | 476 kts | 181° |
| 2026-05-06 16:44 | 24.74583 | 140.97479 | 41105 ft | 476 kts | 181° |
| 2026-05-06 16:44 | 24.67964 | 140.97767 | 41116 ft | 476 kts | 181° |
| 2026-05-06 16:45 | 24.61392 | 140.98052 | 41107 ft | 476 kts | 181° |
| 2026-05-06 16:45 | 24.54768 | 140.98340 | 41112 ft | 476 kts | 181° |
| 2026-05-06 16:46 | 24.48146 | 140.98627 | 41113 ft | 476 kts | 180° |
| 2026-05-06 16:46 | 24.41518 | 140.98914 | 41113 ft | 477 kts | 180° |
| 2026-05-06 16:47 | 24.34936 | 140.99199 | 41110 ft | 477 kts | 180° |
| 2026-05-06 16:47 | 24.28307 | 140.99486 | 41108 ft | 477 kts | 180° |
| 2026-05-06 16:48 | 24.21683 | 140.99772 | 41107 ft | 477 kts | 180° |
| 2026-05-06 16:48 | 24.15048 | 141.00058 | 41107 ft | 477 kts | 180° |
| 2026-05-06 16:49 | 24.08423 | 141.00344 | 41106 ft | 477 kts | 180° |
| 2026-05-06 16:49 | 24.01838 | 141.00628 | 41104 ft | 477 kts | 180° |
| 2026-05-06 16:50 | 23.95208 | 141.00913 | 41103 ft | 477 kts | 180° |
| 2026-05-06 16:50 | 23.88575 | 141.01198 | 41101 ft | 477 kts | 180° |
| 2026-05-06 16:51 | 23.81948 | 141.01482 | 41100 ft | 477 kts | 180° |
| 2026-05-06 16:51 | 23.75361 | 141.01765 | 41095 ft | 477 kts | 180° |
| 2026-05-06 16:52 | 23.68732 | 141.02049 | 41103 ft | 477 kts | 180° |
| 2026-05-06 16:52 | 23.62095 | 141.02333 | 41097 ft | 477 kts | 180° |
| 2026-05-06 16:53 | 23.55464 | 141.02616 | 41097 ft | 477 kts | 180° |
| 2026-05-06 16:53 | 23.48835 | 141.02900 | 41093 ft | 477 kts | 180° |
| 2026-05-06 16:54 | 23.42247 | 141.03181 | 41092 ft | 477 kts | 180° |
| 2026-05-06 16:54 | 23.35616 | 141.03463 | 41093 ft | 477 kts | 180° |
| 2026-05-06 16:55 | 23.28984 | 141.03746 | 41086 ft | 477 kts | 180° |
| 2026-05-06 16:55 | 23.22353 | 141.04028 | 41087 ft | 477 kts | 180° |
| 2026-05-06 16:56 | 23.15765 | 141.04308 | 41090 ft | 477 kts | 180° |
| 2026-05-06 16:56 | 23.09134 | 141.04589 | 41089 ft | 477 kts | 180° |
| 2026-05-06 16:57 | 23.02500 | 141.04871 | 41079 ft | 477 kts | 180° |
| 2026-05-06 16:57 | 22.95860 | 141.05152 | 41086 ft | 477 kts | 180° |
| 2026-05-06 16:58 | 22.89222 | 141.05433 | 41085 ft | 478 kts | 180° |
| 2026-05-06 16:58 | 22.82626 | 141.05712 | 41084 ft | 478 kts | 180° |
| 2026-05-06 16:59 | 22.75990 | 141.05993 | 41081 ft | 477 kts | 180° |
| 2026-05-06 16:59 | 22.69350 | 141.06273 | 41083 ft | 477 kts | 180° |
| 2026-05-06 17:00 | 22.62709 | 141.06553 | 41084 ft | 477 kts | 180° |
| 2026-05-06 17:00 | 22.56114 | 141.06831 | 41088 ft | 477 kts | 180° |
| 2026-05-06 17:01 | 22.49616 | 141.07104 | 41083 ft | 477 kts | 180° |
| 2026-05-06 17:01 | 22.42893 | 141.07387 | 41073 ft | 478 kts | 180° |
| 2026-05-06 17:02 | 22.36227 | 141.07667 | 41079 ft | 478 kts | 180° |
| 2026-05-06 17:02 | 22.29604 | 141.07945 | 41076 ft | 478 kts | 180° |
| 2026-05-06 17:03 | 22.22939 | 141.08224 | 41073 ft | 478 kts | 180° |
| 2026-05-06 17:03 | 22.16275 | 141.08503 | 41072 ft | 479 kts | 180° |
| 2026-05-06 17:04 | 22.09654 | 141.08781 | 41074 ft | 479 kts | 180° |
| 2026-05-06 17:04 | 22.02979 | 141.09060 | 41068 ft | 479 kts | 180° |
| 2026-05-06 17:05 | 21.96315 | 141.09338 | 41072 ft | 479 kts | 180° |
| 2026-05-06 17:05 | 21.89636 | 141.09617 | 41069 ft | 479 kts | 180° |
| 2026-05-06 17:06 | 21.82999 | 141.09893 | 41070 ft | 479 kts | 180° |
| 2026-05-06 17:06 | 21.76329 | 141.10171 | 41062 ft | 479 kts | 180° |
| 2026-05-06 17:07 | 21.69696 | 141.10447 | 41064 ft | 479 kts | 180° |
| 2026-05-06 17:07 | 21.63015 | 141.10725 | 41064 ft | 480 kts | 180° |
| 2026-05-06 17:08 | 21.56322 | 141.11003 | 41062 ft | 480 kts | 180° |
| 2026-05-06 17:08 | 21.49690 | 141.11278 | 41056 ft | 479 kts | 180° |
| 2026-05-06 17:09 | 21.42994 | 141.11556 | 41059 ft | 480 kts | 180° |
| 2026-05-06 17:09 | 21.36313 | 141.11832 | 41058 ft | 480 kts | 180° |
| 2026-05-06 17:10 | 21.29675 | 141.12107 | 41056 ft | 480 kts | 180° |
| 2026-05-06 17:10 | 21.22993 | 141.12384 | 41055 ft | 480 kts | 180° |
| 2026-05-06 17:11 | 21.16324 | 141.12659 | 41057 ft | 480 kts | 180° |
| 2026-05-06 17:11 | 21.09661 | 141.12934 | 41050 ft | 480 kts | 180° |
| 2026-05-06 17:12 | 21.02975 | 141.13211 | 41052 ft | 480 kts | 180° |
| 2026-05-06 17:12 | 20.96320 | 141.13495 | 41048 ft | 480 kts | 179° |
| 2026-05-06 17:13 | 20.89627 | 141.13799 | 41044 ft | 481 kts | 180° |
| 2026-05-06 17:13 | 20.82936 | 141.14107 | 41045 ft | 481 kts | 179° |
| 2026-05-06 17:14 | 20.76246 | 141.14413 | 41041 ft | 481 kts | 180° |
| 2026-05-06 17:14 | 20.69596 | 141.14715 | 41043 ft | 481 kts | 180° |
| 2026-05-06 17:15 | 20.62905 | 141.15020 | 41042 ft | 481 kts | 180° |
| 2026-05-06 17:15 | 20.56197 | 141.15346 | 41040 ft | 481 kts | 180° |
| 2026-05-06 17:16 | 20.49500 | 141.15680 | 41032 ft | 481 kts | 179° |
| 2026-05-06 17:16 | 20.42846 | 141.16012 | 41037 ft | 482 kts | 180° |
| 2026-05-06 17:17 | 20.36120 | 141.16344 | 41036 ft | 482 kts | 179° |
| 2026-05-06 17:17 | 20.29403 | 141.16676 | 41037 ft | 482 kts | 179° |
| 2026-05-06 17:18 | 20.23815 | 141.16951 | 41031 ft | 482 kts | 179° |
| 2026-05-06 17:18 | 20.17146 | 141.17279 | 41029 ft | 482 kts | 179° |
| 2026-05-06 17:19 | 20.10430 | 141.17610 | 41029 ft | 482 kts | 179° |
| 2026-05-06 17:19 | 20.03750 | 141.17939 | 41029 ft | 482 kts | 179° |
| 2026-05-06 17:20 | 19.97038 | 141.18268 | 41026 ft | 482 kts | 179° |
| 2026-05-06 17:20 | 19.90320 | 141.18598 | 41029 ft | 483 kts | 179° |
| 2026-05-06 17:21 | 19.83631 | 141.18925 | 41027 ft | 483 kts | 179° |
| 2026-05-06 17:21 | 19.76903 | 141.19256 | 41026 ft | 483 kts | 179° |
| 2026-05-06 17:22 | 19.70178 | 141.19585 | 41022 ft | 483 kts | 180° |
| 2026-05-06 17:22 | 19.63482 | 141.19913 | 41021 ft | 484 kts | 179° |
| 2026-05-06 17:23 | 19.56716 | 141.20244 | 41021 ft | 485 kts | 179° |
| 2026-05-06 17:23 | 19.49998 | 141.20572 | 41016 ft | 485 kts | 179° |
| 2026-05-06 17:24 | 19.43242 | 141.20901 | 41012 ft | 485 kts | 180° |
| 2026-05-06 17:24 | 19.36536 | 141.21227 | 41012 ft | 486 kts | 180° |
| 2026-05-06 17:25 | 19.29749 | 141.21558 | 41012 ft | 486 kts | 179° |
| 2026-05-06 17:25 | 19.23027 | 141.21886 | 41010 ft | 486 kts | 179° |
| 2026-05-06 17:26 | 19.16255 | 141.22214 | 41011 ft | 486 kts | 180° |
| 2026-05-06 17:26 | 19.09522 | 141.22541 | 41007 ft | 488 kts | 180° |
| 2026-05-06 17:27 | 19.02713 | 141.22872 | 41006 ft | 488 kts | 180° |
| 2026-05-06 17:27 | 18.95915 | 141.23204 | 41005 ft | 488 kts | 179° |
| 2026-05-06 17:28 | 18.89165 | 141.23531 | 41005 ft | 488 kts | 179° |
| 2026-05-06 17:28 | 18.82396 | 141.23859 | 41002 ft | 488 kts | 179° |
| 2026-05-06 17:29 | 18.75598 | 141.24186 | 41004 ft | 489 kts | 179° |
| 2026-05-06 17:29 | 18.68769 | 141.24516 | 40997 ft | 489 kts | 179° |
| 2026-05-06 17:30 | 18.62003 | 141.24846 | 41001 ft | 489 kts | 179° |
| 2026-05-06 17:30 | 18.55200 | 141.25173 | 40999 ft | 489 kts | 179° |
| 2026-05-06 17:31 | 18.48376 | 141.25501 | 40993 ft | 490 kts | 180° |
| 2026-05-06 17:31 | 18.41595 | 141.25828 | 40993 ft | 490 kts | 179° |
| 2026-05-06 17:32 | 18.34776 | 141.26159 | 40995 ft | 490 kts | 179° |
| 2026-05-06 17:32 | 18.27963 | 141.26486 | 40988 ft | 490 kts | 180° |
| 2026-05-06 17:33 | 18.21142 | 141.26811 | 40987 ft | 491 kts | 179° |
| 2026-05-06 17:33 | 18.14352 | 141.27138 | 40988 ft | 491 kts | 180° |
| 2026-05-06 17:34 | 18.07503 | 141.27469 | 40985 ft | 491 kts | 179° |
| 2026-05-06 17:34 | 18.00657 | 141.27798 | 40985 ft | 491 kts | 179° |
| 2026-05-06 17:35 | 17.93862 | 141.28123 | 40978 ft | 491 kts | 180° |
| 2026-05-06 17:35 | 17.87027 | 141.28448 | 40978 ft | 491 kts | 180° |
| 2026-05-06 17:36 | 17.76779 | 141.28940 | 40977 ft | 492 kts | 180° |
| 2026-05-06 17:36 | 17.69927 | 141.29267 | 40977 ft | 492 kts | 180° |
| 2026-05-06 17:37 | 17.63078 | 141.29595 | 40974 ft | 492 kts | 180° |
| 2026-05-06 17:37 | 17.56261 | 141.29920 | 40974 ft | 492 kts | 180° |
| 2026-05-06 17:38 | 17.49432 | 141.30246 | 40971 ft | 492 kts | 180° |
| 2026-05-06 17:38 | 17.42576 | 141.30573 | 40971 ft | 492 kts | 180° |
| 2026-05-06 17:39 | 17.35716 | 141.30900 | 40971 ft | 493 kts | 180° |
| 2026-05-06 17:39 | 17.28891 | 141.31225 | 40969 ft | 493 kts | 180° |
| 2026-05-06 17:40 | 17.22005 | 141.31553 | 40969 ft | 493 kts | 180° |
| 2026-05-06 17:40 | 17.15186 | 141.31877 | 40968 ft | 493 kts | 180° |